Time;durP1;ratioP1;P1;durP2;ratioP2;P2;SDS_P1;SDS_P2;PMS_P1;PMS_P2;Temp;Humidity;BMP_temperature;BMP_pressure;BME280_temperature;BME280_humidity;BME280_pressure;Samples;Min_cycle;Max_cycle;Signal;HPM_P1;HPM_P2
2023/07/01 00:01:33;;;;;;;6.68;2.30;;;20.20;86.80;;;;;;5003597;28;20029;-88
2023/07/01 00:03:58;;;;;;;6.95;2.47;;;20.20;85.20;;;;;;5003456;28;20021;-88
2023/07/01 00:06:25;;;;;;;5.72;2.30;;;20.10;84.80;;;;;;4986538;28;20447;-87
2023/07/01 00:08:53;;;;;;;13.93;2.95;;;20.00;85.10;;;;;;5019248;28;20056;-89
2023/07/01 00:11:19;;;;;;;6.13;2.22;;;20.00;84.80;;;;;;5003645;28;20029;-88
2023/07/01 00:13:44;;;;;;;6.75;2.15;;;20.00;84.70;;;;;;5002278;28;20502;-87
2023/07/01 00:16:13;;;;;;;5.47;2.25;;;20.00;84.30;;;;;;5002394;28;20033;-88
2023/07/01 00:18:42;;;;;;;5.07;2.35;;;19.90;84.50;;;;;;5019503;28;20167;-88
2023/07/01 00:21:11;;;;;;;7.63;2.50;;;20.00;84.60;;;;;;5002752;28;20044;-88
2023/07/01 00:23:37;;;;;;;7.68;2.00;;;20.00;84.00;;;;;;5018786;28;20029;-88
2023/07/01 00:26:02;;;;;;;6.05;2.30;;;19.90;83.60;;;;;;5019588;28;20037;-89
2023/07/01 00:28:28;;;;;;;6.85;2.00;;;19.90;83.40;;;;;;5032367;28;20022;-87
2023/07/01 00:30:54;;;;;;;6.75;2.40;;;19.90;83.60;;;;;;5024392;28;20032;-88
2023/07/01 00:33:19;;;;;;;7.45;2.63;;;19.90;83.70;;;;;;5002495;28;20044;-88
2023/07/01 00:35:46;;;;;;;10.27;2.78;;;19.90;83.60;;;;;;4986290;28;20033;-89
2023/07/01 00:38:11;;;;;;;5.30;2.13;;;19.90;84.10;;;;;;5019688;28;20036;-89
2023/07/01 00:40:37;;;;;;;4.30;1.95;;;19.90;84.10;;;;;;5002060;28;20395;-89
2023/07/01 00:43:03;;;;;;;9.27;2.63;;;19.90;84.10;;;;;;5019333;28;20455;-88
2023/07/01 00:45:29;;;;;;;7.03;2.15;;;19.90;83.90;;;;;;5018687;28;20018;-88
2023/07/01 00:47:54;;;;;;;5.88;2.13;;;19.90;84.00;;;;;;5018926;28;20087;-87
2023/07/01 00:50:20;;;;;;;6.10;2.00;;;19.90;83.80;;;;;;5018861;28;20395;-88
2023/07/01 00:52:47;;;;;;;7.68;2.13;;;19.90;84.20;;;;;;5001855;28;20029;-89
2023/07/01 00:55:12;;;;;;;7.60;2.25;;;19.90;83.20;;;;;;5002444;28;20530;-89
2023/07/01 00:57:38;;;;;;;4.82;2.10;;;19.80;82.70;;;;;;5018389;28;20068;-89
2023/07/01 01:00:13;;;;;;;8.63;2.42;;;19.80;83.40;;;;;;5002631;28;20502;-89
2023/07/01 01:03:04;;;;;;;5.85;2.03;;;19.90;82.80;;;;;;5018217;28;20052;-88
2023/07/01 01:05:47;;;;;;;8.82;2.67;;;19.80;82.40;;;;;;5018641;28;20047;-86
2023/07/01 01:08:29;;;;;;;5.60;1.98;;;19.80;82.60;;;;;;5020003;28;20045;-89
2023/07/01 01:10:59;;;;;;;7.03;2.35;;;19.80;83.10;;;;;;5027622;28;20017;-89
2023/07/01 01:13:27;;;;;;;6.07;2.33;;;19.70;83.40;;;;;;5057924;28;20048;-87
2023/07/01 01:15:55;;;;;;;4.47;1.80;;;19.80;83.40;;;;;;5025913;28;20116;-89
2023/07/01 01:18:23;;;;;;;7.65;2.80;;;19.70;84.00;;;;;;5018134;28;20029;-90
2023/07/01 01:20:50;;;;;;;7.50;2.42;;;19.70;84.50;;;;;;5001243;28;20072;-89
2023/07/01 01:23:28;;;;;;;4.50;2.20;;;19.70;84.70;;;;;;5018055;28;20391;-89
2023/07/01 01:26:32;;;;;;;6.80;2.13;;;19.70;84.90;;;;;;5017683;28;20112;-88
2023/07/01 01:28:58;;;;;;;4.60;2.10;;;19.80;84.80;;;;;;4920517;29;20028;-89
2023/07/01 01:31:23;;;;;;;6.28;2.17;;;19.70;84.30;;;;;;4999916;28;20487;-89
2023/07/01 01:33:49;;;;;;;6.38;2.20;;;19.70;84.70;;;;;;5001365;28;20124;-88
2023/07/01 01:36:30;;;;;;;5.65;2.55;;;19.80;84.80;;;;;;4985870;28;20029;-88
2023/07/01 01:39:05;;;;;;;7.13;2.17;;;19.80;85.00;;;;;;5032835;28;20029;-88
2023/07/01 01:41:44;;;;;;;7.13;2.38;;;19.80;85.40;;;;;;5041398;28;20017;-89
2023/07/01 01:44:18;;;;;;;8.07;2.28;;;19.80;85.60;;;;;;5017826;28;20024;-88
2023/07/01 01:46:44;;;;;;;7.18;2.25;;;19.80;85.60;;;;;;5017824;28;20091;-87
2023/07/01 01:49:12;;;;;;;4.55;1.90;;;19.70;85.50;;;;;;5002396;28;20068;-90
2023/07/01 01:51:40;;;;;;;6.60;2.10;;;19.70;85.80;;;;;;5017274;28;20033;-90
2023/07/01 01:54:09;;;;;;;7.85;2.90;;;19.70;85.80;;;;;;5017325;28;20021;-89
2023/07/01 01:56:36;;;;;;;6.88;2.30;;;19.70;86.30;;;;;;5017800;28;20108;-89
2023/07/01 01:59:02;;;;;;;5.82;2.05;;;19.70;86.40;;;;;;5000888;28;20034;-89
2023/07/01 02:01:28;;;;;;;7.43;2.20;;;19.70;86.60;;;;;;4985139;28;20029;-88
2023/07/01 02:03:54;;;;;;;8.82;2.53;;;19.60;86.90;;;;;;5034660;28;20030;-88
2023/07/01 02:06:20;;;;;;;4.70;2.33;;;19.60;87.20;;;;;;4984604;28;20029;-89
2023/07/01 02:08:46;;;;;;;8.30;2.22;;;19.60;87.60;;;;;;5017054;28;20407;-88
2023/07/01 02:11:12;;;;;;;11.60;2.15;;;19.60;88.10;;;;;;4984702;28;20061;-89
2023/07/01 02:13:37;;;;;;;8.00;2.38;;;19.60;88.10;;;;;;5034849;28;20040;-87
2023/07/01 02:16:03;;;;;;;8.07;2.50;;;19.70;88.70;;;;;;5017216;28;20025;-89
2023/07/01 02:18:29;;;;;;;7.38;2.38;;;19.60;88.80;;;;;;5017168;28;20029;-89
2023/07/01 02:20:54;;;;;;;6.93;2.38;;;19.60;89.40;;;;;;4999726;28;20038;-88
2023/07/01 02:23:20;;;;;;;10.50;2.88;;;19.60;90.00;;;;;;5034209;28;20033;-87
2023/07/01 02:25:46;;;;;;;11.23;2.80;;;19.60;90.30;;;;;;5002423;28;20037;-90
2023/07/01 02:28:13;;;;;;;7.15;2.20;;;19.60;90.20;;;;;;4989837;28;20026;-88
2023/07/01 02:30:39;;;;;;;7.88;2.42;;;19.60;90.30;;;;;;5006730;28;20030;-88
2023/07/01 02:33:05;;;;;;;6.30;2.38;;;19.60;90.40;;;;;;5032370;28;20029;-88
2023/07/01 02:35:30;;;;;;;5.45;2.20;;;19.60;90.50;;;;;;5002730;28;20080;-88
2023/07/01 02:37:56;;;;;;;6.68;2.33;;;19.60;90.50;;;;;;5004140;28;20030;-89
2023/07/01 02:40:22;;;;;;;7.28;2.45;;;19.60;90.60;;;;;;5004364;28;20041;-89
2023/07/01 02:42:47;;;;;;;6.30;2.33;;;19.50;90.70;;;;;;5003908;28;20057;-89
2023/07/01 02:45:13;;;;;;;6.95;2.08;;;19.40;90.80;;;;;;5005122;28;20029;-88
2023/07/01 02:47:39;;;;;;;4.47;2.00;;;19.40;91.00;;;;;;4995127;28;20025;-87
2023/07/01 02:50:05;;;;;;;7.75;2.40;;;19.50;91.70;;;;;;5035165;28;20029;-89
2023/07/01 02:52:31;;;;;;;5.07;2.03;;;19.40;91.80;;;;;;5021192;28;20475;-88
2023/07/01 02:54:57;;;;;;;6.32;2.55;;;19.40;92.20;;;;;;5005154;28;20025;-88
2023/07/01 02:57:22;;;;;;;5.93;2.40;;;19.40;92.20;;;;;;5021164;28;20080;-88
2023/07/01 02:59:51;;;;;;;11.55;2.28;;;19.30;92.50;;;;;;5004076;28;20034;-88
2023/07/01 03:02:16;;;;;;;8.10;1.98;;;19.30;93.00;;;;;;5004298;28;20124;-88
2023/07/01 03:04:42;;;;;;;5.63;2.33;;;19.30;93.50;;;;;;5004172;28;20110;-89
2023/07/01 03:07:08;;;;;;;6.30;2.20;;;19.30;93.80;;;;;;5025677;28;20501;-87
2023/07/01 03:09:33;;;;;;;4.50;2.08;;;19.20;94.10;;;;;;5023796;28;20017;-88
2023/07/01 03:11:59;;;;;;;4.47;2.05;;;19.20;94.40;;;;;;5023791;28;20148;-87
2023/07/01 03:14:25;;;;;;;6.40;2.60;;;19.10;94.40;;;;;;5021379;28;20030;-89
2023/07/01 03:16:52;;;;;;;7.32;1.92;;;19.20;94.30;;;;;;5037210;28;20048;-88
2023/07/01 03:19:18;;;;;;;7.07;1.77;;;19.10;94.50;;;;;;5040666;28;20037;-88
2023/07/01 03:21:46;;;;;;;8.18;2.83;;;19.20;94.50;;;;;;5021594;28;20021;-89
2023/07/01 03:24:12;;;;;;;5.50;2.20;;;19.10;95.10;;;;;;5008661;28;20032;-89
2023/07/01 03:26:38;;;;;;;7.30;2.20;;;19.10;95.70;;;;;;5020428;28;20025;-88
2023/07/01 03:29:03;;;;;;;6.57;2.45;;;19.00;96.20;;;;;;5019584;28;20356;-88
2023/07/01 03:31:29;;;;;;;15.23;2.58;;;18.90;96.70;;;;;;4987377;28;20036;-89
2023/07/01 03:33:54;;;;;;;6.25;2.40;;;18.90;97.20;;;;;;5003597;28;20036;-88
2023/07/01 03:36:20;;;;;;;6.55;2.25;;;18.80;97.50;;;;;;4987432;28;20032;-89
2023/07/01 03:38:46;;;;;;;5.78;2.30;;;18.70;97.50;;;;;;4986920;28;20369;-89
2023/07/01 03:41:12;;;;;;;5.88;2.53;;;18.70;97.90;;;;;;5002666;28;20072;-89
2023/07/01 03:43:37;;;;;;;5.82;2.35;;;18.70;98.20;;;;;;5020364;28;20029;-89
2023/07/01 03:46:03;;;;;;;6.22;2.25;;;18.60;98.60;;;;;;5006262;28;20034;-89
2023/07/01 03:48:29;;;;;;;4.55;2.22;;;18.60;98.90;;;;;;5021576;28;20030;-88
2023/07/01 03:50:55;;;;;;;4.30;1.95;;;18.50;99.10;;;;;;5040261;28;20109;-89
2023/07/01 03:53:21;;;;;;;6.82;2.25;;;18.50;99.10;;;;;;5002824;28;20048;-89
2023/07/01 03:55:47;;;;;;;4.43;2.15;;;18.50;99.20;;;;;;5019623;28;20029;-89
2023/07/01 03:58:21;;;;;;;5.10;2.25;;;18.50;99.20;;;;;;5004733;28;20033;-89
2023/07/01 04:00:53;;;;;;;6.18;2.17;;;18.50;99.30;;;;;;5006954;28;20087;-88
2023/07/01 04:03:23;;;;;;;6.47;3.33;;;18.50;99.40;;;;;;5001827;28;20079;-89
2023/07/01 04:05:50;;;;;;;5.80;2.17;;;18.50;99.50;;;;;;5002925;28;20076;-89
2023/07/01 04:08:16;;;;;;;5.80;2.22;;;18.50;99.50;;;;;;4985957;28;20056;-88
2023/07/01 04:10:42;;;;;;;7.60;2.47;;;18.50;99.50;;;;;;5002491;28;20128;-89
2023/07/01 04:13:07;;;;;;;5.45;2.05;;;18.50;99.60;;;;;;5002026;28;20026;-88
2023/07/01 04:15:33;;;;;;;5.30;2.38;;;18.50;99.90;;;;;;5002655;28;20033;-89
2023/07/01 04:17:59;;;;;;;6.10;2.40;;;18.50;99.90;;;;;;5002132;28;20099;-89
2023/07/01 04:20:24;;;;;;;4.85;2.63;;;18.50;99.90;;;;;;4986050;28;20065;-89
2023/07/01 04:22:50;;;;;;;5.65;2.30;;;18.50;99.90;;;;;;5018136;28;20137;-88
2023/07/01 04:25:16;;;;;;;5.50;2.00;;;18.40;99.90;;;;;;5018286;28;20076;-89
2023/07/01 04:27:44;;;;;;;4.95;2.08;;;18.40;99.90;;;;;;5018414;28;20025;-89
2023/07/01 04:30:12;;;;;;;3.83;2.03;;;18.40;99.90;;;;;;5018014;28;20040;-89
2023/07/01 04:32:38;;;;;;;4.75;2.40;;;18.40;99.90;;;;;;5018682;28;20061;-88
2023/07/01 04:35:04;;;;;;;5.05;2.20;;;18.40;99.90;;;;;;5001833;28;20102;-89
2023/07/01 04:37:30;;;;;;;5.32;2.00;;;18.30;99.90;;;;;;5018211;28;20021;-88
2023/07/01 04:39:55;;;;;;;6.07;2.60;;;18.40;99.90;;;;;;5018108;28;20036;-89
2023/07/01 04:42:21;;;;;;;48.83;3.47;;;18.40;99.90;;;;;;5035882;28;20382;-88
2023/07/01 04:44:56;;;;;;;5.75;2.17;;;18.30;99.90;;;;;;5035464;28;20444;-88
2023/07/01 04:47:23;;;;;;;5.53;2.47;;;18.30;99.90;;;;;;5035460;28;20034;-89
2023/07/01 04:49:52;;;;;;;4.65;2.30;;;18.30;99.90;;;;;;5001889;28;20029;-88
2023/07/01 04:52:26;;;;;;;4.78;2.50;;;18.30;99.90;;;;;;5001921;28;20055;-88
2023/07/01 04:54:52;;;;;;;4.60;2.17;;;18.30;99.90;;;;;;5003309;28;20026;-89
2023/07/01 04:57:18;;;;;;;8.05;2.08;;;18.30;99.90;;;;;;5017958;28;20025;-89
2023/07/01 04:59:44;;;;;;;5.55;2.13;;;18.20;99.90;;;;;;5017429;28;20034;-88
2023/07/01 05:02:10;;;;;;;3.58;2.00;;;18.20;99.90;;;;;;5018887;28;20034;-88
2023/07/01 05:04:39;;;;;;;4.70;2.20;;;18.20;99.90;;;;;;5021460;28;20032;-89
2023/07/01 05:07:05;;;;;;;3.30;2.05;;;18.20;99.90;;;;;;5040682;28;20041;-88
2023/07/01 05:09:30;;;;;;;3.25;1.70;;;18.20;99.90;;;;;;5000594;28;20487;-89
2023/07/01 05:11:56;;;;;;;2.28;1.75;;;18.20;99.90;;;;;;5005611;28;20120;-88
2023/07/01 05:14:22;;;;;;;6.75;2.25;;;18.20;99.90;;;;;;5034816;28;20036;-89
2023/07/01 05:16:47;;;;;;;2.50;1.75;;;18.20;99.90;;;;;;5035960;28;20467;-89
2023/07/01 05:19:13;;;;;;;3.05;1.98;;;18.10;99.90;;;;;;5017651;28;20032;-88
2023/07/01 05:21:52;;;;;;;3.05;1.83;;;18.00;99.90;;;;;;5001205;28;20375;-89
2023/07/01 05:24:18;;;;;;;3.10;2.00;;;18.00;99.90;;;;;;5034642;28;20045;-89
2023/07/01 05:26:48;;;;;;;3.47;2.17;;;18.00;99.90;;;;;;5017430;28;20022;-90
2023/07/01 05:29:14;;;;;;;5.32;1.90;;;17.90;99.90;;;;;;5001372;28;20533;-89
2023/07/01 05:31:40;;;;;;;3.00;1.70;;;17.90;99.90;;;;;;4984735;28;20655;-89
2023/07/01 05:34:07;;;;;;;3.72;2.30;;;17.90;99.90;;;;;;5035169;28;20025;-89
2023/07/01 05:36:32;;;;;;;3.78;1.95;;;17.90;99.90;;;;;;5017219;28;20039;-89
2023/07/01 05:38:58;;;;;;;3.17;2.10;;;17.90;99.90;;;;;;5000945;28;20530;-89
2023/07/01 05:41:24;;;;;;;5.03;2.33;;;17.90;99.90;;;;;;5001086;28;20060;-89
2023/07/01 05:43:50;;;;;;;3.53;2.25;;;17.80;99.90;;;;;;5000784;28;20529;-88
2023/07/01 05:46:15;;;;;;;3.88;2.28;;;17.80;99.90;;;;;;5000171;28;20033;-88
2023/07/01 05:48:42;;;;;;;4.15;2.50;;;17.80;99.90;;;;;;5000763;28;20148;-89
2023/07/01 05:51:08;;;;;;;3.20;2.40;;;17.80;99.90;;;;;;5000858;28;20064;-89
2023/07/01 05:53:34;;;;;;;4.32;2.33;;;17.80;99.90;;;;;;5034680;28;20057;-88
2023/07/01 05:56:02;;;;;;;3.67;2.35;;;17.80;99.90;;;;;;5017612;28;20033;-88
2023/07/01 05:58:28;;;;;;;6.60;2.67;;;17.80;99.90;;;;;;5000589;28;20037;-89
2023/07/01 06:00:53;;;;;;;3.08;2.40;;;17.80;99.90;;;;;;5000352;28;20033;-89
2023/07/01 06:03:19;;;;;;;6.50;2.60;;;17.80;99.90;;;;;;5000432;28;20052;-88
2023/07/01 06:05:45;;;;;;;3.08;1.95;;;17.80;99.90;;;;;;5016761;28;20026;-89
2023/07/01 06:08:11;;;;;;;4.65;2.40;;;17.80;99.90;;;;;;4999951;28;20061;-89
2023/07/01 06:10:37;;;;;;;7.80;2.13;;;17.80;99.90;;;;;;5016200;28;20037;-89
2023/07/01 06:13:02;;;;;;;5.15;2.45;;;17.80;99.90;;;;;;4983316;28;20487;-88
2023/07/01 06:15:28;;;;;;;5.80;2.67;;;17.80;99.90;;;;;;5000004;28;20518;-88
2023/07/01 06:17:54;;;;;;;4.18;2.30;;;17.80;99.90;;;;;;5017879;28;20547;-88
2023/07/01 06:20:19;;;;;;;5.68;2.55;;;17.80;99.90;;;;;;5002056;28;20572;-89
2023/07/01 06:22:45;;;;;;;5.20;2.53;;;17.80;99.90;;;;;;5005543;28;20463;-89
2023/07/01 06:25:10;;;;;;;4.68;2.25;;;17.80;99.90;;;;;;5014292;28;20089;-88
2023/07/01 06:27:39;;;;;;;3.75;2.30;;;17.90;99.90;;;;;;5038030;28;20028;-89
2023/07/01 06:30:06;;;;;;;5.70;2.47;;;17.80;99.90;;;;;;5019708;28;20037;-89
2023/07/01 06:32:31;;;;;;;3.38;2.40;;;17.80;99.90;;;;;;5000095;28;20120;-89
2023/07/01 06:34:57;;;;;;;3.60;2.08;;;17.80;99.90;;;;;;4984730;28;20049;-89
2023/07/01 06:37:23;;;;;;;4.43;2.38;;;17.80;99.90;;;;;;5016333;28;20375;-89
2023/07/01 06:39:48;;;;;;;4.53;2.35;;;17.80;99.90;;;;;;5016702;28;20544;-88
2023/07/01 06:42:14;;;;;;;2.97;2.10;;;17.80;99.90;;;;;;5001439;28;20029;-89
2023/07/01 06:44:40;;;;;;;3.88;2.28;;;17.80;99.90;;;;;;5013235;28;20100;-89
2023/07/01 06:47:06;;;;;;;4.13;2.28;;;17.80;99.90;;;;;;4995787;28;20060;-89
2023/07/01 06:49:34;;;;;;;3.38;2.15;;;17.80;99.90;;;;;;4980334;28;20095;-89
2023/07/01 06:52:01;;;;;;;4.70;2.50;;;17.90;99.90;;;;;;4996179;28;20022;-90
2023/07/01 06:54:26;;;;;;;6.15;2.30;;;17.80;99.90;;;;;;5007356;28;20041;-89
2023/07/01 06:56:52;;;;;;;5.68;2.33;;;17.80;99.90;;;;;;5033832;28;20061;-90
2023/07/01 06:59:18;;;;;;;5.40;2.10;;;17.80;99.90;;;;;;4982450;28;20102;-89
2023/07/01 07:01:44;;;;;;;2.67;2.10;;;17.90;99.90;;;;;;5033450;28;20029;-89
2023/07/01 07:04:10;;;;;;;6.22;2.10;;;17.90;99.90;;;;;;5020637;28;20057;-87
2023/07/01 07:06:36;;;;;;;3.28;2.10;;;17.90;99.90;;;;;;5001670;28;20025;-87
2023/07/01 07:09:03;;;;;;;3.13;2.15;;;17.90;99.90;;;;;;5001639;28;20034;-88
2023/07/01 07:11:29;;;;;;;3.78;2.10;;;17.90;99.90;;;;;;5035552;28;20014;-88
2023/07/01 07:13:55;;;;;;;4.72;2.00;;;17.90;99.90;;;;;;5018632;28;20029;-87
2023/07/01 07:16:20;;;;;;;5.43;2.22;;;17.90;99.90;;;;;;5019019;28;20025;-88
2023/07/01 07:18:46;;;;;;;5.68;1.90;;;18.00;99.90;;;;;;5017836;28;20068;-90
2023/07/01 07:21:12;;;;;;;7.13;2.38;;;18.00;99.90;;;;;;5020789;28;20095;-88
2023/07/01 07:23:37;;;;;;;3.50;2.00;;;18.00;99.90;;;;;;5037739;28;20379;-89
2023/07/01 07:26:03;;;;;;;4.13;2.10;;;18.00;99.90;;;;;;5005941;28;20087;-90
2023/07/01 07:28:29;;;;;;;4.60;2.50;;;18.00;99.90;;;;;;4989162;28;20033;-89
2023/07/01 07:30:54;;;;;;;3.05;1.98;;;18.10;99.90;;;;;;5003448;28;20036;-89
2023/07/01 07:33:20;;;;;;;4.90;2.10;;;18.10;99.90;;;;;;4986857;28;20124;-89
2023/07/01 07:35:46;;;;;;;4.57;2.00;;;18.10;99.90;;;;;;5000175;28;20395;-90
2023/07/01 07:38:11;;;;;;;4.53;1.98;;;18.10;99.90;;;;;;4984820;28;20370;-89
2023/07/01 07:40:37;;;;;;;2.35;1.90;;;18.10;99.90;;;;;;4971503;28;20037;-89
2023/07/01 07:43:10;;;;;;;4.28;1.90;;;18.10;99.90;;;;;;5027094;28;20029;-90
2023/07/01 07:45:37;;;;;;;2.83;1.85;;;18.10;99.90;;;;;;5034334;28;20026;-89
2023/07/01 07:48:03;;;;;;;3.25;2.15;;;18.10;99.90;;;;;;4990038;28;20083;-88
2023/07/01 07:50:28;;;;;;;2.53;1.60;;;18.20;99.90;;;;;;5020367;28;20479;-89
2023/07/01 07:52:54;;;;;;;4.03;1.73;;;18.20;99.90;;;;;;5003432;28;20030;-90
2023/07/01 07:55:20;;;;;;;4.15;2.05;;;18.20;99.90;;;;;;5002921;28;20040;-89
2023/07/01 07:57:45;;;;;;;6.80;1.98;;;18.20;99.90;;;;;;5002770;28;20034;-89
2023/07/01 08:00:12;;;;;;;3.30;1.85;;;18.20;99.90;;;;;;4986783;28;20040;-91
2023/07/01 08:02:42;;;;;;;2.55;1.73;;;18.30;99.90;;;;;;5002524;28;20116;-88
2023/07/01 08:05:08;;;;;;;2.03;1.70;;;18.30;99.90;;;;;;5003945;28;20030;-90
2023/07/01 08:07:34;;;;;;;3.75;2.40;;;18.30;99.90;;;;;;5002510;28;20072;-89
2023/07/01 08:09:59;;;;;;;3.03;2.10;;;18.30;99.90;;;;;;5002629;28;20108;-89
2023/07/01 08:12:25;;;;;;;4.30;2.20;;;18.30;99.90;;;;;;5018886;28;20099;-88
2023/07/01 08:14:51;;;;;;;3.75;2.25;;;18.30;99.90;;;;;;5018939;28;20410;-90
2023/07/01 08:17:19;;;;;;;4.20;2.38;;;18.30;99.90;;;;;;4987466;28;20082;-92
2023/07/01 08:19:45;;;;;;;3.58;2.17;;;18.30;99.90;;;;;;5019682;28;20049;-90
2023/07/01 08:22:10;;;;;;;6.03;3.08;;;18.30;99.90;;;;;;5003427;28;20029;-89
2023/07/01 08:24:36;;;;;;;2.75;2.28;;;18.30;99.90;;;;;;5002442;28;20398;-80
2023/07/01 08:27:02;;;;;;;6.78;2.63;;;18.30;99.90;;;;;;4984760;28;20038;-81
2023/07/01 08:29:27;;;;;;;3.15;2.40;;;18.30;99.90;;;;;;5035077;28;20033;-92
2023/07/01 08:31:53;;;;;;;2.92;2.28;;;18.30;99.90;;;;;;5019115;28;20032;-82
2023/07/01 08:34:19;;;;;;;6.05;2.53;;;18.30;99.90;;;;;;5016531;28;20121;-80
2023/07/01 08:36:44;;;;;;;2.55;2.25;;;18.30;99.90;;;;;;4984432;28;20426;-82
2023/07/01 08:39:10;;;;;;;5.30;2.50;;;18.40;99.90;;;;;;5016694;28;20056;-83
2023/07/01 08:41:48;;;;;;;2.92;2.42;;;18.40;99.90;;;;;;5016545;28;20034;-86
2023/07/01 08:44:14;;;;;;;4.95;2.83;;;18.40;99.90;;;;;;5018992;28;20021;-89
2023/07/01 08:46:42;;;;;;;3.05;2.50;;;18.40;99.90;;;;;;5001841;28;20044;-86
2023/07/01 08:49:10;;;;;;;3.50;2.70;;;18.40;99.90;;;;;;5018304;28;20040;-89
2023/07/01 08:51:41;;;;;;;4.28;2.50;;;18.30;99.90;;;;;;5018109;28;20025;-88
2023/07/01 08:54:09;;;;;;;3.97;2.35;;;18.30;99.90;;;;;;5035569;28;20029;-88
2023/07/01 08:56:35;;;;;;;2.90;2.53;;;18.30;99.90;;;;;;5002274;28;20029;-88
2023/07/01 08:59:01;;;;;;;3.17;2.72;;;18.30;99.90;;;;;;5020389;28;20037;-88
2023/07/01 09:01:28;;;;;;;4.07;3.08;;;18.40;99.90;;;;;;5035527;28;20030;-88
2023/07/01 09:03:53;;;;;;;4.82;2.72;;;18.40;99.90;;;;;;5021196;28;20060;-89
2023/07/01 09:06:20;;;;;;;4.55;2.90;;;18.40;99.90;;;;;;5002548;28;20026;-89
2023/07/01 09:08:45;;;;;;;3.95;2.90;;;18.40;99.90;;;;;;5001720;28;20111;-89
2023/07/01 09:11:16;;;;;;;3.03;2.65;;;18.40;99.90;;;;;;5036014;28;20025;-89
2023/07/01 09:13:42;;;;;;;;;;;18.50;99.90;;;;;;5035563;28;20013;-88
2023/07/01 09:16:10;;;;;;;4.30;3.38;;;18.40;99.90;;;;;;5001338;28;19955;-89
2023/07/01 09:18:38;;;;;;;4.25;2.90;;;18.40;99.90;;;;;;5000547;28;20029;-89
2023/07/01 09:21:18;;;;;;;4.88;3.50;;;18.40;99.90;;;;;;5017193;28;20487;-89
2023/07/01 09:23:43;;;;;;;4.78;3.50;;;18.40;99.90;;;;;;5014815;28;20014;-87
2023/07/01 09:26:13;;;;;;;4.70;3.58;;;18.50;99.90;;;;;;5016971;28;20029;-87
2023/07/01 09:28:53;;;;;;;4.03;3.17;;;18.40;99.90;;;;;;5016961;28;20024;-87
2023/07/01 09:31:19;;;;;;;4.38;3.22;;;18.40;99.90;;;;;;5010559;28;20291;-88
2023/07/01 09:34:00;;;;;;;4.60;3.38;;;18.40;99.90;;;;;;4999810;28;20029;-87
2023/07/01 09:36:26;;;;;;;5.93;3.85;;;18.50;99.90;;;;;;5034860;28;20025;-89
2023/07/01 09:38:53;;;;;;;4.30;3.42;;;18.40;99.90;;;;;;5006334;28;20489;-88
2023/07/01 09:41:23;;;;;;;6.40;3.80;;;18.50;99.90;;;;;;5002393;28;20502;-89
2023/07/01 09:43:49;;;;;;;5.00;4.47;;;18.50;99.90;;;;;;5018673;28;20033;-88
2023/07/01 09:46:15;;;;;;;5.47;3.60;;;18.50;99.90;;;;;;5016408;28;20076;-88
2023/07/01 09:48:56;;;;;;;4.70;3.72;;;18.50;99.90;;;;;;5000649;28;20533;-88
2023/07/01 09:51:24;;;;;;;5.47;3.97;;;18.40;99.90;;;;;;5011329;28;20135;-87
2023/07/01 09:53:50;;;;;;;5.00;3.67;;;18.50;99.90;;;;;;5000401;28;20029;-88
2023/07/01 09:56:19;;;;;;;8.90;4.63;;;18.50;99.90;;;;;;5000161;28;20542;-87
2023/07/01 09:58:46;;;;;;;5.18;4.20;;;18.40;99.90;;;;;;5012501;28;20084;-89
2023/07/01 10:01:15;;;;;;;5.45;4.20;;;18.40;99.90;;;;;;5013403;28;20034;-88
2023/07/01 10:03:42;;;;;;;6.82;4.35;;;18.40;99.90;;;;;;5017112;28;20029;-88
2023/07/01 10:06:09;;;;;;;4.53;4.05;;;18.50;99.90;;;;;;5016762;28;20041;-88
2023/07/01 10:08:35;;;;;;;4.63;4.10;;;18.50;99.90;;;;;;5034010;28;20045;-88
2023/07/01 10:11:06;;;;;;;6.35;4.40;;;18.50;99.90;;;;;;5017266;28;20040;-87
2023/07/01 10:13:38;;;;;;;4.40;3.50;;;18.60;99.90;;;;;;5017680;28;20502;-87
2023/07/01 10:16:06;;;;;;;5.00;3.53;;;18.60;99.90;;;;;;5019674;28;20048;-87
2023/07/01 10:18:33;;;;;;;5.72;3.60;;;18.60;99.90;;;;;;5027007;28;20018;-88
2023/07/01 10:21:20;;;;;;;4.95;3.80;;;18.70;99.90;;;;;;5052019;28;20034;-88
2023/07/01 10:23:46;;;;;;;4.90;3.85;;;18.70;99.90;;;;;;5019261;28;20033;-87
2023/07/01 10:26:35;;;;;;;4.32;3.58;;;18.70;99.90;;;;;;5001745;28;20026;-88
2023/07/01 10:29:30;;;;;;;4.47;3.42;;;18.70;99.90;;;;;;5017088;28;20021;-89
2023/07/01 10:32:11;;;;;;;5.85;3.78;;;18.70;99.90;;;;;;5016426;28;20025;-88
2023/07/01 10:35:03;;;;;;;4.65;3.58;;;18.70;99.90;;;;;;5016458;28;20036;-88
2023/07/01 10:37:31;;;;;;;5.25;3.60;;;18.70;99.90;;;;;;5013499;28;20076;-89
2023/07/01 10:39:58;;;;;;;5.55;4.00;;;18.70;99.90;;;;;;5000015;28;20463;-89
2023/07/01 10:42:32;;;;;;;4.70;3.80;;;18.80;99.90;;;;;;5000522;28;20060;-88
2023/07/01 10:45:12;;;;;;;5.97;3.90;;;18.80;99.90;;;;;;4984577;28;20064;-88
2023/07/01 10:47:43;;;;;;;7.32;4.00;;;18.80;99.90;;;;;;5016690;28;20033;-89
2023/07/01 10:50:19;;;;;;;6.35;4.22;;;18.80;99.90;;;;;;5020038;28;20510;-89
2023/07/01 10:52:57;;;;;;;5.63;4.05;;;18.80;99.90;;;;;;5041220;28;20440;-88
2023/07/01 10:55:49;;;;;;;6.88;4.20;;;18.90;99.90;;;;;;5016667;28;20029;-88
2023/07/01 10:58:28;;;;;;;5.45;3.95;;;18.80;99.90;;;;;;5019096;28;20052;-88
2023/07/01 11:00:55;;;;;;;6.28;3.88;;;18.90;99.90;;;;;;5027808;28;20052;-88
2023/07/01 11:03:39;;;;;;;6.45;4.47;;;19.00;99.90;;;;;;5060835;28;20028;-88
2023/07/01 11:06:12;;;;;;;8.82;4.22;;;19.00;99.90;;;;;;5044240;28;20037;-87
2023/07/01 11:08:50;;;;;;;6.68;4.22;;;19.00;99.90;;;;;;5043649;28;20037;-89
2023/07/01 11:11:21;;;;;;;6.00;4.25;;;19.00;99.90;;;;;;5060907;28;20009;-88
2023/07/01 11:14:13;;;;;;;8.48;4.60;;;19.10;99.90;;;;;;5043182;28;20042;-89
2023/07/01 11:16:39;;;;;;;7.72;5.07;;;19.10;99.90;;;;;;5036535;28;20042;-89
2023/07/01 11:19:10;;;;;;;14.13;4.60;;;19.20;99.90;;;;;;5051333;28;20087;-88
2023/07/01 11:21:38;;;;;;;6.90;4.25;;;19.20;99.90;;;;;;5022987;28;20041;-88
2023/07/01 11:24:08;;;;;;;6.90;4.20;;;19.30;99.90;;;;;;5004104;28;20040;-89
2023/07/01 11:26:39;;;;;;;7.20;4.40;;;19.30;99.90;;;;;;5020104;28;20028;-89
2023/07/01 11:29:23;;;;;;;5.13;4.07;;;19.40;99.90;;;;;;5003656;28;20083;-86
2023/07/01 11:31:59;;;;;;;6.78;4.43;;;19.40;99.90;;;;;;5037739;28;20029;-89
2023/07/01 11:34:26;;;;;;;7.97;4.85;;;19.50;99.90;;;;;;5022464;28;20032;-89
2023/07/01 11:36:53;;;;;;;6.78;4.68;;;19.50;99.90;;;;;;5018173;28;20085;-88
2023/07/01 11:39:19;;;;;;;6.80;5.40;;;19.60;99.90;;;;;;5037295;28;20017;-88
2023/07/01 11:41:50;;;;;;;6.40;4.95;;;19.60;99.90;;;;;;5022378;28;20022;-89
2023/07/01 11:44:17;;;;;;;8.10;5.38;;;19.70;99.90;;;;;;5004633;28;20538;-89
2023/07/01 11:46:44;;;;;;;6.65;5.25;;;19.70;99.90;;;;;;5019619;28;20022;-88
2023/07/01 11:49:17;;;;;;;6.40;4.82;;;19.70;99.90;;;;;;5005038;28;20025;-89
2023/07/01 11:51:48;;;;;;;7.15;4.85;;;19.70;99.90;;;;;;5038721;28;20033;-90
2023/07/01 11:54:15;;;;;;;;;;;19.80;99.90;;;;;;5020426;28;20021;-93
2023/07/01 11:56:44;;;;;;;8.45;5.07;;;19.80;99.90;;;;;;5021396;28;19909;-90
2023/07/01 11:59:10;;;;;;;6.40;4.78;;;19.80;99.90;;;;;;5012851;28;20036;-91
2023/07/01 12:01:38;;;;;;;6.18;5.00;;;19.80;99.90;;;;;;5012174;28;20033;-92
2023/07/01 12:04:15;;;;;;;7.40;4.85;;;19.80;99.90;;;;;;5038106;28;20014;-92
2023/07/01 12:06:41;;;;;;;6.35;4.88;;;19.80;99.90;;;;;;5019618;28;20037;-86
2023/07/01 12:09:08;;;;;;;6.35;4.43;;;19.80;99.90;;;;;;5018128;28;20042;-92
2023/07/01 12:11:48;;;;;;;6.05;5.07;;;19.80;99.90;;;;;;5013620;28;20025;-89
2023/07/01 12:14:23;;;;;;;9.73;5.40;;;19.90;99.90;;;;;;5014230;28;20124;-86
2023/07/01 12:16:53;;;;;;;7.30;5.57;;;19.90;99.90;;;;;;5017039;28;20387;-87
2023/07/01 12:19:20;;;;;;;7.35;5.28;;;19.90;99.90;;;;;;5000376;28;20029;-85
2023/07/01 12:21:47;;;;;;;7.45;5.75;;;19.90;99.90;;;;;;5033871;28;20113;-91
2023/07/01 12:24:24;;;;;;;7.22;5.25;;;19.90;99.90;;;;;;4989408;28;20030;-89
2023/07/01 12:26:55;;;;;;;7.43;5.10;;;19.90;99.90;;;;;;5005945;28;20029;-89
2023/07/01 12:29:22;;;;;;;6.25;4.07;;;19.80;99.90;;;;;;5019177;28;20029;-81
2023/07/01 12:31:58;;;;;;;6.20;4.18;;;19.80;99.90;;;;;;5019157;28;20095;-91
2023/07/01 12:34:27;;;;;;;8.52;4.60;;;19.80;99.90;;;;;;5009075;28;20029;-92
2023/07/01 12:36:56;;;;;;;8.13;5.20;;;19.80;99.90;;;;;;5015824;28;20060;-91
2023/07/01 12:39:24;;;;;;;9.48;5.53;;;19.80;99.90;;;;;;5019075;28;20053;-87
2023/07/01 12:41:58;;;;;;;7.70;5.47;;;19.90;99.90;;;;;;5018390;28;20029;-89
2023/07/01 12:44:26;;;;;;;9.93;5.90;;;19.90;99.90;;;;;;5019505;28;20021;-88
2023/07/01 12:46:52;;;;;;;8.38;5.75;;;19.90;99.90;;;;;;5018719;28;20095;-89
2023/07/01 12:49:18;;;;;;;8.38;6.75;;;19.90;99.90;;;;;;5019238;28;20071;-88
2023/07/01 12:51:44;;;;;;;8.85;5.72;;;20.00;99.90;;;;;;5006913;28;20026;-89
2023/07/01 12:54:11;;;;;;;9.90;7.53;;;20.00;99.90;;;;;;5004440;28;20033;-87